x

Nantucket 54nm Southeast Of Nantucket (44008) Wave Buoy

1:50am - Sat 4th Jul 2015 All times are EDT. -4 hours from GMT.

  • Sig Wave height 5.2ft
  • Swell Direction
  • Peak Period 10s
  • Average Period 8s
  • Wind
    4mph
  • Sea Temp 64°f
  • Air Temp 63°f
  • Sea Pressure 1016.3mb
  • Nantucket 54nm Southeast Of Nantucket
  • Nantucket 54nm Southeast Of Nantucket

More Historic Weather Station data

Upgrade to MSW Pro to gain access to the past 30 days of data for over 8000 Wavebouys and Weather Stations around the globe.

Join Pro

Comparision Forecast

View Surf forecast
   
Sat 07/04 1:50am 5ft 10s 8s 4
mph
1016.3mb 64f 63f
12:50am 5ft 10s 8s 2
mph
1016.3mb 65f 63f
Fri 07/03 11:50pm 5ft 9s 7s 9
mph
1016.3mb 65f 63f
10:50pm 5ft 9s 7s 7
mph
1016.3mb 65f 63f
9:50pm 5.5ft 9s 8s 4 7 mph 1016.4mb 63f 63f
8:50pm 6ft 8s 8s 7
mph
1016.1mb 63f 63f
7:50pm 5.5ft 8s 8s 4
mph
1015.6mb 63f 63f
6:50pm 6ft 10s 8s 2 4 mph 1015.4mb 63f 64f
5:50pm 5.5ft 9s 8s 7 9 mph 1014.9mb 65f 62f
4:50pm 4.5ft 9s 8s 9 11 mph 1014.9mb 66f 62f
3:50pm 4.5ft 9s 8s 7 9 mph 1014.9mb 67f 64f
2:50pm 4.5ft 9s 8s 4
mph
1014.8mb 67f 65f
1:50pm 4ft 9s 7s 2
mph
1014.9mb 65f 64f
12:50pm 3.5ft 9s 7s 4 7 mph 1014.6mb 65f 63f
11:50am 4ft 8s 7s 2 4 mph 1013.8mb 65f 64f
10:50am 3.5ft 9s 7s 4
mph
1013.1mb 65f 64f
9:50am 4ft 8s 7s 4
mph
1012.6mb 63f 63f
8:50am 4.5ft 8s 7s 7 9 mph 1012.6mb 62f 61f
7:50am 4.5ft 8s 7s 7 9 mph 1011.6mb 61f 61f
6:50am 4.5ft 8s 7s 11 13 mph 1010.8mb 61f 61f
5:50am 4.5ft 8s 7s 11 13 mph 1010.4mb 60f 60f
4:50am 5ft 8s 8s 11 13 mph 1009.8mb 60f 60f
3:50am 4ft 9s 7s 13 16 mph 1009.8mb 63f 62f
2:50am 4.5ft 8s 7s 13 18 mph 1009.9mb 64f 64f
1:50am 4ft 9s 7s 9 11 mph 1009.6mb 64f 66f
12:50am 4.5ft 8s 7s 9
mph
1010.1mb 64f 65f
Thu 07/02 11:50pm 4.5ft 9s 6s 7
mph
1010.7mb 64f 65f
10:50pm 4.5ft 8s 6s 4 7 mph 1011.1mb 64f 65f
9:50pm 5ft 8s 6s 7 9 mph 1011.4mb 64f 65f
8:50pm 5ft 9s 6s 7 9 mph 1012.2mb 64f 66f
7:50pm 5ft 8s 6s 7 9 mph 1012.5mb 65f 68f
6:50pm 6.5ft 9s 7s 4
mph
1012.1mb 65f 68f
5:50pm 6ft 9s 7s 7
mph
1012mb 66f 68f
4:50pm 6ft 9s 7s 2 4 mph 1012.2mb 66f 68f
3:50pm 5.5ft 9s 7s 7 9 mph 1012.2mb 67f 69f
2:50pm 5.5ft 9s 7s 7
mph
1012.4mb 67f 69f
1:50pm 5.5ft 9s 7s 4 7 mph 1012.5mb 68f 69f
12:50pm 5ft 8s 6s 2 4 mph 1012.6mb 68f 68f
11:50am 6ft 9s 6s 2
mph
1013.2mb 66f 67f
10:50am 6ft 8s 6s 2
mph
1013.7mb 64f 66f
9:50am 6ft 8s 6s 2 4 mph 1013.2mb 62f 65f
8:50am 6ft 8s 6s 4 7 mph 1013mb 61f 65f
7:50am 7ft 8s 6s 4
mph
1012.6mb 61f 65f
6:50am 5.5ft 8s 6s 4 7 mph 1012.2mb 60f 64f
5:50am 6.5ft 8s 7s 7 9 mph 1012mb 60f 64f
4:50am 6ft 8s 7s 9 11 mph 1011.7mb 60f 65f
3:50am 6ft 8s 7s 11 16 mph 1011.4mb 61f 68f
2:50am 6ft 9s 7s 11 13 mph 1011.3mb 64f 68f
1:50am 6ft 8s 7s 13 16 mph 1011.4mb 64f 69f
12:50am 6ft 9s 6s 11 13 mph 1011.5mb 65f 68f
Wed 07/01 11:50pm 6ft 8s 6s 11 13 mph 1011.5mb 65f 67f
10:50pm 7ft 8s 6s 11
mph
1011.4mb 65f 68f
9:50pm 6ft 7s 6s 11 13 mph 1011.2mb 65f 69f
8:50pm 6.5ft 8s 6s 13 16 mph 1010.6mb 65f 69f
7:50pm 6ft 7s 6s 16 18 mph 1010.1mb 65f 69f
6:50pm 6ft 8s 6s 13 16 mph 1009.9mb 64f 69f
5:50pm 6ft 7s 6s 13 16 mph 1009.9mb 65f 70f
4:50pm 5ft 6s 6s 11 13 mph 1010.2mb 65f 70f
3:50pm 4.5ft 7s 6s 11 13 mph 1010.5mb 65f 69f
2:50pm 5ft 8s 6s 16 18 mph 1010.7mb 65f 71f
1:50pm 4.5ft 7s 6s 16 18 mph 1010.5mb 65f 70f
12:50pm 4ft 8s 5s 16 18 mph 1010.4mb 65f 71f
11:50am 4.5ft 8s 6s 18 20 mph 1010.4mb 65f 71f
10:50am 4.5ft 8s 6s 16
mph
1011.3mb 65f 70f
9:50am 4ft 7s 6s 11
mph
1011.8mb 65f 70f
8:50am 4.5ft 7s 6s 9 11 mph 1012.3mb 65f 67f
7:50am 4.5ft 8s 6s 9 11 mph 1012.6mb 65f 66f
6:50am 4.5ft 8s 6s 9 11 mph 1012.6mb 65f 64f
5:50am 5ft 8s 7s 9 11 mph 1012.8mb 65f 63f
4:50am 4.5ft 8s 6s 9 11 mph 1013.1mb 65f 63f
3:50am 3.5ft 8s 6s 4 7 mph 1013.3mb 65f 65f
2:50am 4ft 8s 7s 7
mph
1013.2mb 65f 65f
1:50am 4ft 8s 7s 7
mph
1013.9mb 65f 65f
12:50am 3.5ft 8s 6s 7 9 mph 1014.4mb 65f 65f
Tue 06/30 11:50pm 3.5ft 8s 6s 4 7 mph 1015.3mb 65f 66f
10:50pm 3.5ft 8s 6s 7
mph
1015.3mb 65f 66f
9:50pm 3.5ft 8s 6s 7 9 mph 1015.7mb 65f 66f
8:50pm 4ft 8s 6s 11
mph
1015.4mb 66f 67f
7:50pm 4ft 8s 6s 11 13 mph 1015.4mb 66f 68f
6:50pm 4.5ft 8s 7s 9 11 mph 1015.3mb 66f 68f
5:50pm 4.5ft 8s 7s 7
mph
1015.1mb 67f 68f
4:50pm 4.5ft 8s 7s 7
mph
1015.4mb 67f 69f
3:50pm 4.5ft 8s 7s 4
mph
1015.9mb 67f 69f
2:50pm 4.5ft 8s 7s 4
mph
1016.7mb 68f 69f
1:50pm 4.5ft 9s 7s 4 7 mph 1017.2mb 66f 69f
12:50pm 4.5ft 8s 6s 4
mph
1017.3mb 66f 68f
11:50am 4.5ft 8s 6s 4
mph
1017.1mb 66f 67f
10:50am 4.5ft 8s 6s 4 7 mph 1017.1mb 65f 66f
9:50am 4.5ft 8s 6s 7
mph
1017mb 64f 66f
8:50am 4.5ft 9s 6s 7
mph
1017.3mb 62f 65f
7:50am 5ft 8s 6s 7
mph
1017.2mb 59f 64f